createdAt,value
2023-11-12T00:01:36.457Z,100299.03
2023-11-12T00:06:29.527Z,100297.63
2023-11-12T00:11:23.934Z,100305.63
2023-11-12T00:16:18.675Z,100309.50
2023-11-12T00:21:15.231Z,100308.66
2023-11-12T00:26:09.056Z,100320.22
2023-11-12T00:31:02.672Z,100320.13
2023-11-12T00:35:57.451Z,100322.63
2023-11-12T00:40:50.706Z,100327.81
2023-11-12T00:45:43.710Z,100336.56
2023-11-12T00:50:36.849Z,100340.63
2023-11-12T00:55:31.244Z,100338.63
2023-11-12T01:00:25.305Z,100337.59
2023-11-12T01:05:18.822Z,100345.88
2023-11-12T01:10:12.315Z,100340.47
2023-11-12T01:15:07.576Z,100353.47
2023-11-12T01:20:01.735Z,100351.06
2023-11-12T01:24:54.818Z,100358.16
2023-11-12T01:29:47.801Z,100359.22
2023-11-12T01:34:42.180Z,100348.00
2023-11-12T01:39:35.170Z,100349.72
2023-11-12T01:44:28.449Z,100348.19
2023-11-12T01:49:22.430Z,100353.19
2023-11-12T01:54:17.996Z,100348.06
2023-11-12T01:59:13.073Z,100353.28
2023-11-12T02:04:09.844Z,100365.56
2023-11-12T02:09:03.028Z,100365.69
2023-11-12T02:13:57.640Z,100363.09
2023-11-12T02:18:50.721Z,100359.44
2023-11-12T02:23:45.210Z,100354.22
2023-11-12T02:28:40.011Z,100347.38
2023-11-12T02:33:33.564Z,100355.88
2023-11-12T02:38:26.797Z,100311.59
2023-11-12T02:43:21.381Z,100361.91
2023-11-12T02:48:14.564Z,100369.53
2023-11-12T02:53:08.841Z,100370.97
2023-11-12T02:58:02.288Z,100372.41
2023-11-12T03:02:59.498Z,100376.69
2023-11-12T03:07:52.816Z,100378.22
2023-11-12T03:12:45.893Z,100382.50
2023-11-12T03:17:39.159Z,100385.59
2023-11-12T03:22:34.939Z,100389.78
2023-11-12T03:27:28.194Z,100397.59
2023-11-12T03:32:22.734Z,100410.25
2023-11-12T03:37:15.712Z,100405.06
2023-11-12T03:42:12.802Z,100415.88
2023-11-12T03:47:06.347Z,100407.13
2023-11-12T03:51:59.936Z,100413.75
2023-11-12T03:56:53.006Z,100429.38
2023-11-12T04:01:47.991Z,100425.13
2023-11-12T04:06:41.074Z,100448.22
2023-11-12T04:11:36.580Z,100446.25
2023-11-12T04:16:29.653Z,100452.56
2023-11-12T04:21:24.144Z,100452.25
2023-11-12T04:26:17.592Z,100452.97
2023-11-12T04:31:10.737Z,100441.63
2023-11-12T04:36:03.858Z,100449.66
2023-11-12T04:40:58.640Z,100455.81
2023-11-12T04:45:51.773Z,100455.19
2023-11-12T04:50:44.849Z,100445.09
2023-11-12T04:55:38.123Z,100459.03
2023-11-12T05:00:32.684Z,100457.38
2023-11-12T05:05:25.702Z,100450.53
2023-11-12T05:10:18.876Z,100459.88
2023-11-12T05:15:12.089Z,100470.19
2023-11-12T05:20:07.106Z,100494.34
2023-11-12T05:25:00.120Z,100497.78
2023-11-12T05:29:53.967Z,100512.56
2023-11-12T05:34:47.049Z,100534.13
2023-11-12T05:39:41.682Z,100547.38
2023-11-12T05:44:34.722Z,100554.53
2023-11-12T05:49:27.808Z,100554.13
2023-11-12T05:54:20.908Z,100567.69
2023-11-12T05:59:15.403Z,100570.59
2023-11-12T06:04:08.642Z,100601.00
2023-11-12T06:09:03.528Z,100597.44
2023-11-12T06:13:56.640Z,100600.56
2023-11-12T06:18:51.176Z,100619.22
2023-11-12T06:23:45.749Z,100623.91
2023-11-12T06:28:38.865Z,100616.50
2023-11-12T06:33:31.967Z,100629.63
2023-11-12T06:38:26.804Z,100646.22
2023-11-12T06:43:19.752Z,100635.25
2023-11-12T06:48:12.761Z,100649.50
2023-11-12T06:53:05.734Z,100666.31
2023-11-12T06:58:00.321Z,100665.66
2023-11-12T07:02:55.442Z,100666.47
2023-11-12T07:07:48.411Z,100669.78
2023-11-12T07:12:41.525Z,100674.13
2023-11-12T07:17:36.968Z,100687.88
2023-11-12T07:22:32.048Z,100697.53
2023-11-12T07:27:25.206Z,100687.88
2023-11-12T07:32:18.233Z,100692.44
2023-11-12T07:37:12.930Z,100701.47
2023-11-12T07:42:06.202Z,100700.81
2023-11-12T07:46:59.270Z,100705.59
2023-11-12T07:51:53.214Z,100717.25
2023-11-12T07:56:47.951Z,100727.34
2023-11-12T08:01:41.047Z,100728.44
2023-11-12T08:06:34.117Z,100740.59
2023-11-12T08:11:29.151Z,100732.97
2023-11-12T08:16:24.186Z,100758.69
2023-11-12T08:21:17.272Z,100762.78
2023-11-12T08:26:10.248Z,100760.53
2023-11-12T08:31:04.555Z,100767.69
2023-11-12T08:35:59.124Z,100765.78
2023-11-12T08:40:52.135Z,100767.59
2023-11-12T08:45:45.225Z,100775.19
2023-11-12T08:50:38.237Z,100774.50
2023-11-12T08:55:33.009Z,100767.16
2023-11-12T09:00:26.060Z,100784.00
2023-11-12T09:05:20.051Z,100788.22
2023-11-12T09:10:13.136Z,100787.63
2023-11-12T09:15:10.758Z,100785.47
2023-11-12T09:20:05.231Z,100784.63
2023-11-12T09:25:08.782Z,100789.84
2023-11-12T09:30:04.986Z,100777.81
2023-11-12T09:34:59.384Z,100775.97
2023-11-12T09:39:54.127Z,100776.47
2023-11-12T09:44:49.978Z,100781.91
2023-11-12T09:49:43.676Z,100784.78
2023-11-12T09:54:39.529Z,100799.09
2023-11-12T09:59:32.586Z,100787.69
2023-11-12T10:04:25.713Z,100780.47
2023-11-12T10:09:27.756Z,100796.22
2023-11-12T10:14:25.376Z,100783.56
2023-11-12T10:19:18.554Z,100783.44
2023-11-12T10:24:11.674Z,100788.81
2023-11-12T10:29:07.352Z,100796.59
2023-11-12T10:34:02.222Z,100804.13
2023-11-12T10:38:55.436Z,100807.25
2023-11-12T10:43:58.129Z,100810.53
2023-11-12T10:48:53.614Z,100806.38
2023-11-12T10:53:50.722Z,100822.13
2023-11-12T10:58:47.467Z,100828.94
2023-11-12T11:03:40.561Z,100837.94
2023-11-12T11:08:35.827Z,100837.47
2023-11-12T11:13:30.688Z,100829.59
2023-11-12T11:18:42.392Z,100823.41
2023-11-12T11:23:42.034Z,100830.53
2023-11-12T11:28:36.482Z,100831.47
2023-11-12T11:33:32.174Z,100824.13
2023-11-12T11:38:26.207Z,100823.41
2023-11-12T11:43:32.659Z,100825.69
2023-11-12T11:48:27.441Z,100819.28
2023-11-12T11:53:20.961Z,100813.44
2023-11-12T11:58:15.660Z,100814.03
2023-11-12T12:03:18.560Z,100811.28
2023-11-12T12:08:14.826Z,100820.34
2023-11-12T12:13:11.773Z,100817.84
2023-11-12T12:18:18.326Z,100818.00
2023-11-12T12:23:13.516Z,100824.06
2023-11-12T12:28:07.955Z,100830.25
2023-11-12T12:33:15.399Z,100833.38
2023-11-12T12:38:08.636Z,100843.94
2023-11-12T12:43:08.318Z,100845.88
2023-11-12T12:48:01.381Z,100853.97
2023-11-12T12:53:13.879Z,100855.75
2023-11-12T12:58:08.419Z,100864.56
2023-11-12T13:03:02.134Z,100862.41
2023-11-12T13:07:56.078Z,100867.66
2023-11-12T13:12:51.672Z,100867.06
2023-11-12T13:17:46.794Z,100861.44
2023-11-12T13:22:41.049Z,100870.13
2023-11-12T13:27:35.049Z,100867.06
2023-11-12T13:32:29.590Z,100867.09
2023-11-12T13:37:24.299Z,100865.84
2023-11-12T13:42:18.201Z,100865.28
2023-11-12T13:47:11.187Z,100871.69
2023-11-12T13:52:07.233Z,100871.81
2023-11-12T13:57:01.728Z,100873.69
2023-11-12T14:01:55.276Z,100875.25
2023-11-12T14:07:18.140Z,100881.91
2023-11-12T14:12:41.219Z,100883.91
2023-11-12T14:18:02.428Z,100887.69
2023-11-12T14:28:28.512Z,100898.72
2023-11-12T14:33:30.792Z,100901.16
2023-11-12T14:38:23.991Z,100904.56
2023-11-12T14:43:18.427Z,100891.19
2023-11-12T14:48:14.161Z,100908.66
2023-11-12T14:53:09.719Z,100917.03
2023-11-12T14:58:02.919Z,100921.84
2023-11-12T15:02:58.929Z,100921.44
2023-11-12T15:07:52.317Z,100919.06
2023-11-12T15:12:46.124Z,100923.78
2023-11-12T15:22:58.669Z,100925.59
2023-11-12T15:27:52.474Z,100925.50
2023-11-12T15:32:54.268Z,100934.81
2023-11-12T15:37:47.378Z,100941.50
2023-11-12T15:42:44.072Z,100948.94
2023-11-12T15:47:39.929Z,100954.88
2023-11-12T15:52:33.071Z,100963.25
2023-11-12T15:57:26.437Z,100970.34
2023-11-12T16:02:20.882Z,100968.88
2023-11-12T16:07:17.256Z,100970.84
2023-11-12T16:12:10.411Z,100971.38
2023-11-12T16:17:03.345Z,100975.13
2023-11-12T16:21:57.820Z,100970.84
2023-11-12T16:26:56.429Z,100976.25
2023-11-12T16:31:51.416Z,100977.72
2023-11-12T16:36:47.137Z,100984.34
2023-11-12T16:41:47.486Z,100995.00
2023-11-12T16:46:44.972Z,100995.94
2023-11-12T16:51:40.269Z,100997.91
2023-11-12T16:56:33.309Z,100996.22
2023-11-12T17:01:30.616Z,101011.03
2023-11-12T17:06:23.737Z,101007.66
2023-11-12T17:11:26.309Z,101015.47
2023-11-12T17:16:20.224Z,101006.81
2023-11-12T17:21:15.048Z,101003.78
2023-11-12T17:26:08.242Z,101024.19
2023-11-12T17:31:01.366Z,101022.81
2023-11-12T17:35:54.545Z,101022.16
2023-11-12T17:40:49.134Z,101020.59
2023-11-12T17:45:42.742Z,101030.28
2023-11-12T17:50:36.259Z,101034.97
2023-11-12T17:55:29.293Z,101047.72
2023-11-12T18:00:24.268Z,101046.59
2023-11-12T18:05:17.644Z,101061.13
2023-11-12T18:10:12.709Z,101060.56
2023-11-12T18:15:08.359Z,101065.69
2023-11-12T18:20:04.417Z,101064.56
2023-11-12T18:24:59.698Z,101072.03
2023-11-12T18:29:55.231Z,101073.31
2023-11-12T18:34:49.326Z,101062.50
2023-11-12T18:39:46.310Z,101068.44
2023-11-12T18:44:39.897Z,101067.91
2023-11-12T18:49:36.439Z,101075.91
2023-11-12T18:54:32.914Z,101078.03
2023-11-12T18:59:31.627Z,101078.22
2023-11-12T19:04:28.150Z,101082.97
2023-11-12T19:09:22.078Z,101084.38
2023-11-12T19:14:17.990Z,101092.09
2023-11-12T19:19:16.425Z,101101.41
2023-11-12T19:24:11.635Z,101096.00
2023-11-12T19:29:05.282Z,101093.69
2023-11-12T19:34:02.572Z,101096.28
2023-11-12T19:38:57.930Z,101097.75
2023-11-12T19:44:03.772Z,101105.22
2023-11-12T19:49:00.559Z,101110.03
2023-11-12T19:53:54.619Z,101119.53
2023-11-12T19:59:02.076Z,101114.53
2023-11-12T20:03:57.035Z,101122.81
2023-11-12T20:08:54.894Z,101125.00
2023-11-12T20:13:53.499Z,101125.09
2023-11-12T20:18:47.935Z,101121.56
2023-11-12T20:23:41.396Z,101123.59
2023-11-12T20:28:34.858Z,101125.75
2023-11-12T20:33:28.049Z,101126.00
2023-11-12T20:38:22.689Z,101124.69
2023-11-12T20:43:15.768Z,101137.31
2023-11-12T20:48:08.956Z,101127.59
2023-11-12T20:53:01.988Z,101138.66
2023-11-12T20:57:56.372Z,101138.91
2023-11-12T21:02:50.376Z,101141.09
2023-11-12T21:07:43.578Z,101141.84
2023-11-12T21:12:36.620Z,101139.84
2023-11-12T21:17:32.405Z,101140.53
2023-11-12T21:22:25.430Z,101145.16
2023-11-12T21:27:18.480Z,101137.84
2023-11-12T21:32:11.611Z,101137.78
2023-11-12T21:37:06.894Z,101137.31
2023-11-12T21:42:01.323Z,101136.22
2023-11-12T21:46:54.430Z,101137.22
2023-11-12T21:51:47.478Z,101141.59
2023-11-12T21:56:41.883Z,101138.44
2023-11-12T22:01:34.836Z,101146.97
2023-11-12T22:06:28.016Z,101150.31
2023-11-12T22:11:21.142Z,101139.91
2023-11-12T22:16:16.605Z,101135.25
2023-11-12T22:21:09.751Z,101133.31
2023-11-12T22:26:03.776Z,101131.53
2023-11-12T22:30:56.775Z,101131.44
2023-11-12T22:35:51.272Z,101131.06
2023-11-12T22:40:44.395Z,101131.00
2023-11-12T22:45:38.975Z,101123.38
2023-11-12T22:50:31.915Z,101118.63
2023-11-12T22:55:27.188Z,101115.00
2023-11-12T23:05:38.982Z,101107.16
2023-11-12T23:10:39.383Z,101111.31
2023-11-12T23:15:34.706Z,101115.25
2023-11-12T23:20:27.894Z,101121.66
2023-11-12T23:25:22.431Z,101121.09
2023-11-12T23:30:15.691Z,101113.88
2023-11-12T23:35:09.733Z,101119.28
2023-11-12T23:40:02.836Z,101136.91
2023-11-12T23:44:57.429Z,101151.97
2023-11-12T23:49:50.549Z,101149.53
2023-11-12T23:54:43.846Z,101150.63
2023-11-12T23:59:36.818Z,101152.56
